X  Close Metar Aviation Weather Data     CYZE Gore Bay Manitoulin Airport
Temperature
18°C Temperature
11°C Dewpoint
64% Humidity



Wind
16 KM/H
10 MPH
4 M/S
9 KTS



290°
WNW
Current Conditions

Clear Clear
Pressure 1019.3 (hPa) - 30.1 (inHg)
Visibility 9 (mile) - 14.5 (km)
Airport
Airport-code CYZE

Location: Gore Bay Manitoulin Airport
Distance: 50 (km)

Metar:
CYZE 190200Z AUTO 29009KT 9SM CLR 18/11 A3010 RMK SLP195 DENSITY ALT 1000FT

Time: 07-19-2024 02:00 EDT